Cherrycreek, Mississippi
Current Conditions -  °F | °C
As of 2:53 PM on Thursday 27 Nov 2014 (Local Time) from KTUP Reporting Station
Broken Clouds Broken Clouds  
Wind Chill: 37°   Ceiling: 3800
Heat Index: 44°   Visibility: 10mi
Dew Point: 28°   Wind: 14mph
Humidity: 53%   Direction: 340°NNW
Pressure: 30.45"   Gusts: NA
Location:  34.4333°N, 88.8629°W
Report Text: KTUP 272053Z 34012KT 10SM BKN038 07/M02 A3045 RMK AO2 SLP312 T00671022 56003 $
Loading
Personal Weather Stations






























Interactive Weather Map New forecast layout! Learn more

10-Day Weather Forecast

Advertisements
Track Severe Weather on mobile